Time;durP1;ratioP1;P1;durP2;ratioP2;P2;SDS_P1;SDS_P2;PMS_P1;PMS_P2;Temp;Humidity;BMP_temperature;BMP_pressure;BME280_temperature;BME280_humidity;BME280_pressure;Samples;Min_cycle;Max_cycle;Signal;HPM_P1;HPM_P2
2023/02/12 00:00:07;;;;;;;25.40;12.07;;;7.10;99.90;6.30;102263.00;;;;4892452;28;113976;-67
2023/02/12 00:02:33;;;;;;;19.97;11.97;;;6.50;99.90;6.30;102264.00;;;;4896088;28;101041;-66
2023/02/12 00:04:59;;;;;;;21.87;12.80;;;6.50;99.90;6.30;102275.00;;;;4892565;28;93027;-66
2023/02/12 00:07:24;;;;;;;23.73;13.33;;;7.40;99.90;6.30;102259.00;;;;4891351;28;117921;-67
2023/02/12 00:09:50;;;;;;;22.27;13.03;;;6.40;99.90;6.30;102268.00;;;;4893723;28;112386;-67
2023/02/12 00:12:16;;;;;;;20.77;12.43;;;6.50;99.90;6.30;102262.00;;;;4893153;28;109741;-67
2023/02/12 00:14:42;;;;;;;24.87;13.70;;;7.20;99.90;6.30;102264.00;;;;4895189;28;117145;-68
2023/02/12 00:17:07;;;;;;;24.13;13.70;;;6.90;99.90;6.30;102268.00;;;;4892856;28;89666;-68
2023/02/12 00:19:33;;;;;;;27.93;12.60;;;7.10;99.90;6.30;102262.00;;;;4894687;28;113418;-67
2023/02/12 00:21:59;;;;;;;20.87;11.07;;;6.40;99.90;6.30;102261.00;;;;4890158;28;109470;-67
2023/02/12 00:24:25;;;;;;;24.87;13.10;;;7.10;99.90;6.30;102260.00;;;;4895892;28;98069;-68
2023/02/12 00:26:51;;;;;;;17.33;11.47;;;6.50;99.90;6.30;102272.00;;;;4894773;28;87946;-68
2023/02/12 00:29:17;;;;;;;23.10;13.13;;;6.50;99.90;6.30;102264.00;;;;4894376;28;112363;-66
2023/02/12 00:31:42;;;;;;;18.47;11.73;;;6.60;99.90;6.30;102276.00;;;;4890124;28;108930;-67
2023/02/12 00:34:10;;;;;;;21.50;12.93;;;6.80;99.90;6.30;102269.00;;;;4886708;28;117552;-67
2023/02/12 00:36:35;;;;;;;19.40;10.60;;;7.10;99.90;6.30;102276.00;;;;4890567;28;95948;-68
2023/02/12 00:39:01;;;;;;;18.17;11.47;;;7.00;99.90;6.20;102280.00;;;;4892858;28;113333;-68
2023/02/12 00:41:28;;;;;;;21.93;13.37;;;6.90;99.90;6.20;102282.00;;;;4894540;28;90357;-67
2023/02/12 00:43:54;;;;;;;24.37;12.50;;;6.40;99.90;6.30;102285.00;;;;4894168;28;88990;-67
2023/02/12 00:46:20;;;;;;;20.27;12.27;;;6.50;99.90;6.30;102287.00;;;;4893224;28;89642;-66
2023/02/12 00:48:46;;;;;;;18.07;11.50;;;6.70;99.90;6.30;102289.00;;;;4909108;28;87745;-66
2023/02/12 00:51:11;;;;;;;19.93;10.80;;;6.90;99.90;6.30;102290.00;;;;4890692;28;107895;-67
2023/02/12 00:53:37;;;;;;;21.57;12.40;;;6.60;99.90;6.30;102290.00;;;;4893545;28;101932;-67
2023/02/12 00:56:04;;;;;;;20.17;12.33;;;6.40;99.90;6.30;102293.00;;;;4893400;28;87367;-67
2023/02/12 00:58:29;;;;;;;17.37;11.47;;;6.40;99.90;6.30;102285.00;;;;4894363;28;88463;-67
2023/02/12 01:00:55;;;;;;;23.37;12.83;;;7.10;99.90;6.30;102289.00;;;;4890920;28;107607;-67
2023/02/12 01:03:21;;;;;;;21.90;13.40;;;6.50;99.90;6.30;102283.00;;;;4891670;28;119004;-67
2023/02/12 01:05:46;;;;;;;29.10;14.10;;;6.40;99.90;6.30;102280.00;;;;4894092;28;89024;-67
2023/02/12 01:08:14;;;;;;;22.50;11.73;;;6.50;99.90;6.30;102295.00;;;;4894864;28;87843;-67
2023/02/12 01:10:42;;;;;;;19.73;12.20;;;6.50;99.90;6.30;102297.00;;;;4896281;28;99555;-67
2023/02/12 01:13:12;;;;;;;19.57;12.30;;;6.90;99.90;6.30;102297.00;;;;4894923;28;88507;-67
2023/02/12 01:15:39;;;;;;;22.53;11.07;;;7.20;99.90;6.30;102296.00;;;;4891845;28;87933;-67
2023/02/12 01:18:04;;;;;;;19.97;12.40;;;6.60;99.90;6.30;102300.00;;;;4891706;28;101968;-67
2023/02/12 01:20:30;;;;;;;18.80;12.83;;;6.50;99.90;6.30;102297.00;;;;4893126;28;106758;-67
2023/02/12 01:22:56;;;;;;;17.70;11.93;;;6.50;99.90;6.30;102305.00;;;;4895232;28;118007;-67
2023/02/12 01:25:21;;;;;;;22.03;11.97;;;7.40;99.90;6.30;102311.00;;;;4894161;28;116957;-67
2023/02/12 01:27:47;;;;;;;26.47;12.97;;;6.50;99.90;6.30;102307.00;;;;4891172;28;110952;-67
2023/02/12 01:30:14;;;;;;;20.33;10.67;;;6.70;99.90;6.30;102304.00;;;;4890900;28;108549;-66
2023/02/12 01:32:40;;;;;;;19.57;11.20;;;6.50;99.90;6.30;102305.00;;;;4894526;28;88240;-67
2023/02/12 01:35:09;;;;;;;24.07;12.47;;;7.20;99.90;6.30;102307.00;;;;4892864;28;90378;-67
2023/02/12 01:37:37;;;;;;;16.20;8.80;;;6.50;99.90;6.30;102314.00;;;;4904666;28;87774;-67
2023/02/12 01:40:04;;;;;;;21.30;10.97;;;6.70;99.90;6.30;102311.00;;;;4888082;28;88010;-66
2023/02/12 01:42:30;;;;;;;15.10;10.70;;;6.50;99.90;6.30;102305.00;;;;4890664;28;88531;-67
2023/02/12 01:45:11;;;;;;;16.73;10.50;;;7.20;99.90;6.30;102301.00;;;;4892187;28;116408;-67
2023/02/12 01:47:38;;;;;;;19.93;11.00;;;6.50;99.90;6.30;102303.00;;;;4891436;28;87979;-67
2023/02/12 01:50:07;;;;;;;17.30;11.30;;;7.20;99.90;6.30;102309.00;;;;4891598;28;101131;-67
2023/02/12 01:52:37;;;;;;;16.90;10.50;;;6.50;99.90;6.30;102316.00;;;;4890108;28;99293;-67
2023/02/12 01:55:06;;;;;;;17.37;11.87;;;6.50;99.90;6.30;102311.00;;;;4903664;28;89834;-67
2023/02/12 01:57:38;;;;;;;19.10;11.10;;;6.50;99.90;6.30;102325.00;;;;4904643;28;88143;-69
2023/02/12 02:00:10;;;;;;;21.37;11.50;;;6.50;99.90;6.30;102311.00;;;;4888082;28;87953;-68
2023/02/12 02:02:38;;;;;;;16.07;10.00;;;6.50;99.90;6.30;102312.00;;;;4904851;28;88237;-69
2023/02/12 02:05:06;;;;;;;20.10;12.50;;;6.50;99.90;6.30;102314.00;;;;4890939;28;88817;-69
2023/02/12 02:07:32;;;;;;;18.30;11.23;;;6.50;99.90;6.30;102324.00;;;;4891335;28;105696;-69
2023/02/12 02:09:58;;;;;;;19.57;10.80;;;6.50;99.90;6.30;102318.00;;;;4891470;28;90114;-69
2023/02/12 02:15:11;;;;;;;16.50;9.87;;;6.90;99.90;6.30;102316.00;;;;4889231;28;87885;-69
2023/02/12 02:18:39;;;;;;;17.20;10.50;;;7.20;99.90;6.30;102323.00;;;;4922267;28;108369;-69
2023/02/12 02:22:00;;;;;;;18.97;11.37;;;6.50;99.90;6.30;102307.00;;;;4887221;28;101809;-68
2023/02/12 02:24:42;;;;;;;14.10;9.57;;;6.50;99.90;6.30;102314.00;;;;4889843;28;88191;-68
2023/02/12 02:27:39;;;;;;;15.83;10.53;;;6.50;99.90;6.20;102318.00;;;;4893657;28;87758;-68
2023/02/12 02:30:19;;;;;;;23.07;11.33;;;6.50;99.90;6.30;102313.00;;;;4889585;28;92676;-68
2023/02/12 02:33:10;;;;;;;24.00;10.57;;;6.50;99.90;6.20;102315.00;;;;4889206;28;88201;-69
2023/02/12 02:36:11;;;;;;;20.17;10.83;;;6.50;99.90;6.30;102318.00;;;;4905153;28;87815;-69
2023/02/12 02:38:56;;;;;;;22.13;10.47;;;6.50;99.90;6.20;102316.00;;;;4889775;28;87456;-69
2023/02/12 02:41:56;;;;;;;16.53;10.00;;;6.70;99.90;6.30;102311.00;;;;4906306;28;88073;-69
2023/02/12 02:44:43;;;;;;;22.60;11.60;;;6.70;99.90;6.20;102324.00;;;;4890760;28;87854;-68
2023/02/12 02:47:12;;;;;;;16.83;10.03;;;6.90;99.90;6.30;102320.00;;;;4903525;28;112317;-68
2023/02/12 02:50:03;;;;;;;16.80;9.97;;;6.40;99.90;6.20;102322.00;;;;4892653;28;113665;-68
2023/02/12 02:52:48;;;;;;;12.60;9.50;;;6.40;99.90;6.20;102322.00;;;;4893897;28;88266;-68
2023/02/12 02:55:17;;;;;;;16.20;9.77;;;6.40;99.90;6.20;102319.00;;;;4924885;28;87801;-68
2023/02/12 02:57:56;;;;;;;17.20;10.03;;;6.40;99.90;6.20;102326.00;;;;4909411;28;88939;-69
2023/02/12 03:00:37;;;;;;;13.40;8.63;;;6.40;99.90;6.20;102329.00;;;;4896369;28;109857;-68
2023/02/12 03:03:26;;;;;;;17.07;10.47;;;7.10;99.90;6.10;102330.00;;;;4908017;28;87642;-68
2023/02/12 03:05:58;;;;;;;18.47;10.77;;;6.30;99.90;6.10;102329.00;;;;4907135;28;98328;-69
2023/02/12 03:08:39;;;;;;;19.67;10.70;;;6.80;99.90;6.10;102336.00;;;;4892206;28;90021;-68
2023/02/12 03:11:20;;;;;;;21.90;11.43;;;6.80;99.90;6.10;102328.00;;;;4905715;28;110546;-69
2023/02/12 03:13:53;;;;;;;15.97;10.30;;;6.80;99.90;6.10;102332.00;;;;4891743;28;102590;-70
2023/02/12 03:16:38;;;;;;;15.83;11.60;;;6.60;99.90;6.10;102336.00;;;;4892015;28;94393;-69
2023/02/12 03:19:14;;;;;;;15.13;9.73;;;6.20;99.90;6.00;102337.00;;;;4907055;28;107199;-69
2023/02/12 03:21:46;;;;;;;17.10;9.87;;;6.30;99.90;6.00;102338.00;;;;4922937;28;110733;-69
2023/02/12 03:24:39;;;;;;;19.67;10.40;;;6.20;99.90;6.00;102347.00;;;;4890785;28;104427;-70
2023/02/12 03:27:28;;;;;;;16.37;10.23;;;6.30;99.90;6.10;102346.00;;;;4905211;28;95123;-70
2023/02/12 03:29:54;;;;;;;19.57;9.97;;;6.20;99.90;6.00;102353.00;;;;4891341;28;87657;-68
2023/02/12 03:33:02;;;;;;;19.97;10.63;;;6.30;99.90;6.00;102355.00;;;;4908875;28;88289;-69
2023/02/12 03:35:38;;;;;;;22.47;10.50;;;6.20;99.90;6.00;102365.00;;;;4902379;28;105696;-69
2023/02/12 03:38:37;;;;;;;19.87;10.17;;;6.70;99.90;6.00;102375.00;;;;4886188;28;104227;-69
2023/02/12 03:41:15;;;;;;;21.30;11.47;;;6.20;99.90;6.00;102375.00;;;;4891889;28;108536;-69
2023/02/12 03:43:54;;;;;;;23.90;11.63;;;6.20;99.90;6.00;102383.00;;;;4905732;28;113637;-69
2023/02/12 03:47:00;;;;;;;21.00;11.40;;;6.10;99.90;6.00;102386.00;;;;4904736;28;88113;-68
2023/02/12 03:50:10;;;;;;;15.70;8.67;;;6.30;99.90;6.00;102396.00;;;;4907416;28;88309;-70
2023/02/12 03:52:36;;;;;;;16.97;10.30;;;6.90;99.90;6.00;102395.00;;;;4909153;28;89570;-68
2023/02/12 03:55:03;;;;;;;15.23;8.83;;;6.70;99.90;6.00;102401.00;;;;4891741;28;115822;-68
2023/02/12 03:57:36;;;;;;;14.63;9.63;;;6.20;99.90;6.00;102404.00;;;;4893002;28;109233;-68
2023/02/12 04:00:06;;;;;;;19.67;9.93;;;6.90;99.90;6.00;102391.00;;;;4893519;28;89074;-68
2023/02/12 04:02:33;;;;;;;19.43;10.80;;;6.20;99.90;6.00;102400.00;;;;4906098;28;97835;-68
2023/02/12 04:05:05;;;;;;;18.83;10.10;;;6.10;99.90;6.00;102410.00;;;;4904720;28;118159;-68
2023/02/12 04:07:31;;;;;;;19.13;9.90;;;6.80;99.90;6.00;102412.00;;;;4888667;28;88852;-68
2023/02/12 04:09:57;;;;;;;20.37;11.27;;;6.10;99.90;6.00;102403.00;;;;4891098;28;88003;-68
2023/02/12 04:12:40;;;;;;;16.00;9.90;;;6.10;99.90;5.90;102413.00;;;;4889759;28;116767;-68
2023/02/12 04:15:46;;;;;;;21.60;11.40;;;6.20;99.90;5.90;102408.00;;;;4890250;28;87933;-68
2023/02/12 04:18:24;;;;;;;19.87;10.17;;;6.10;99.90;5.90;102416.00;;;;4903580;28;104261;-68
2023/02/12 04:21:37;;;;;;;15.77;9.67;;;6.50;99.90;5.90;102419.00;;;;4904020;28;96369;-68
2023/02/12 04:24:24;;;;;;;17.37;9.60;;;6.40;99.90;5.80;102425.00;;;;4890376;28;87980;-69
2023/02/12 04:27:00;;;;;;;16.07;9.47;;;6.60;99.90;5.80;102421.00;;;;4904140;28;109710;-68
2023/02/12 04:29:38;;;;;;;15.50;8.73;;;6.00;99.90;5.80;102429.00;;;;4899312;28;87678;-68
2023/02/12 04:32:11;;;;;;;14.97;9.07;;;6.00;99.90;5.80;102436.00;;;;4909975;28;97277;-68
2023/02/12 04:34:56;;;;;;;18.73;10.70;;;6.00;99.90;5.80;102429.00;;;;4894950;28;99530;-68
2023/02/12 04:37:31;;;;;;;22.10;11.23;;;6.10;99.90;5.80;102447.00;;;;4908469;28;88323;-68
2023/02/12 04:39:59;;;;;;;15.70;9.67;;;6.60;99.90;5.80;102433.00;;;;4908066;28;87983;-68
2023/02/12 04:42:24;;;;;;;13.43;8.60;;;6.30;99.90;5.80;102436.00;;;;4924796;28;109414;-68
2023/02/12 04:44:50;;;;;;;16.50;10.23;;;6.00;99.90;5.80;102420.00;;;;4892675;28;117093;-68
2023/02/12 04:47:16;;;;;;;14.73;8.63;;;6.00;99.90;5.80;102434.00;;;;4893302;28;118276;-68
2023/02/12 04:49:42;;;;;;;18.93;9.80;;;6.00;99.90;5.80;102436.00;;;;4893478;28;94200;-67
2023/02/12 04:52:08;;;;;;;19.10;9.60;;;5.90;99.90;5.80;102431.00;;;;4895806;28;97059;-67
2023/02/12 04:54:34;;;;;;;18.50;9.90;;;6.70;99.90;5.90;102422.00;;;;4896083;28;89806;-67
2023/02/12 04:57:01;;;;;;;18.73;10.10;;;6.00;99.90;5.80;102423.00;;;;4894808;28;103666;-67
2023/02/12 04:59:27;;;;;;;15.10;10.03;;;6.50;99.90;5.80;102427.00;;;;4893170;28;88607;-68
2023/02/12 05:01:53;;;;;;;19.37;9.07;;;6.00;99.90;5.80;102429.00;;;;4891984;28;108845;-69
2023/02/12 05:04:18;;;;;;;17.87;10.30;;;6.00;99.90;5.80;102437.00;;;;4895231;28;89026;-68
2023/02/12 05:06:45;;;;;;;14.17;8.57;;;6.60;99.90;5.80;102432.00;;;;4891804;28;117508;-68
2023/02/12 05:09:18;;;;;;;20.73;9.87;;;6.60;99.90;5.90;102433.00;;;;4894182;28;89119;-68
2023/02/12 05:11:44;;;;;;;17.90;9.70;;;6.00;99.90;5.90;102441.00;;;;4894015;28;90744;-68
2023/02/12 05:14:10;;;;;;;12.90;8.87;;;6.00;99.90;5.90;102436.00;;;;4893963;28;111300;-68
2023/02/12 05:16:36;;;;;;;16.27;9.47;;;6.00;99.90;5.90;102448.00;;;;4896498;28;87945;-68
2023/02/12 05:19:01;;;;;;;17.90;9.90;;;6.10;99.90;5.90;102444.00;;;;4893593;28;87867;-68
2023/02/12 05:21:27;;;;;;;15.27;9.43;;;6.00;99.90;5.90;102447.00;;;;4895531;28;88137;-68
2023/02/12 05:23:53;;;;;;;15.50;9.37;;;6.40;99.90;5.90;102441.00;;;;4891672;28;110731;-68
2023/02/12 05:26:20;;;;;;;20.53;11.10;;;6.00;99.90;5.90;102446.00;;;;4895696;28;97652;-68
2023/02/12 05:28:47;;;;;;;16.77;11.10;;;6.00;99.90;5.90;102454.00;;;;4893728;28;87850;-68
2023/02/12 05:31:16;;;;;;;14.93;8.30;;;6.40;99.90;5.80;102443.00;;;;4894364;28;87918;-68
2023/02/12 05:33:44;;;;;;;17.50;9.60;;;6.10;99.90;5.80;102438.00;;;;4894955;28;109057;-68
2023/02/12 05:36:13;;;;;;;17.47;8.77;;;6.50;99.90;5.80;102442.00;;;;4909603;28;108629;-68
2023/02/12 05:38:39;;;;;;;17.47;9.33;;;6.00;99.90;5.80;102442.00;;;;4909418;28;87967;-69
2023/02/12 05:41:15;;;;;;;15.97;9.57;;;6.50;99.90;5.80;102440.00;;;;4895923;28;108459;-69
2023/02/12 05:43:41;;;;;;;17.40;9.30;;;6.00;99.90;5.80;102445.00;;;;4924495;28;88120;-68
2023/02/12 05:46:08;;;;;;;17.40;9.03;;;6.60;99.90;5.80;102445.00;;;;4907188;28;106540;-69
2023/02/12 05:48:34;;;;;;;15.90;8.87;;;6.70;99.90;5.80;102447.00;;;;4892283;28;88869;-68
2023/02/12 05:51:11;;;;;;;15.63;9.30;;;6.70;99.90;5.80;102452.00;;;;4880380;28;89409;-68
2023/02/12 05:53:39;;;;;;;18.07;9.20;;;6.00;99.90;5.80;102452.00;;;;4895447;28;93432;-68
2023/02/12 05:56:15;;;;;;;19.33;8.40;;;6.50;99.90;5.80;102462.00;;;;4893951;28;88127;-68
2023/02/12 05:58:45;;;;;;;15.40;9.30;;;6.50;99.90;5.70;102451.00;;;;4896703;28;88038;-68
2023/02/12 06:01:18;;;;;;;16.13;9.03;;;6.20;99.90;5.80;102459.00;;;;4896229;28;102568;-68
2023/02/12 06:03:44;;;;;;;15.83;9.97;;;5.90;99.90;5.80;102455.00;;;;4894290;28;110673;-68
2023/02/12 06:06:10;;;;;;;13.90;8.43;;;5.90;99.90;5.70;102465.00;;;;4893866;28;116703;-68
2023/02/12 06:08:36;;;;;;;16.00;9.30;;;5.90;99.90;5.70;102479.00;;;;4893330;28;113114;-68
2023/02/12 06:11:05;;;;;;;13.67;8.30;;;6.70;99.90;5.80;102463.00;;;;4891985;28;88266;-68
2023/02/12 06:13:32;;;;;;;15.93;9.87;;;6.00;99.90;5.80;102468.00;;;;4894419;28;90144;-68
2023/02/12 06:15:58;;;;;;;16.20;9.80;;;6.00;99.90;5.80;102475.00;;;;4893530;28;99910;-68
2023/02/12 06:18:24;;;;;;;15.50;8.63;;;5.90;99.90;5.80;102477.00;;;;4891431;28;87908;-68
2023/02/12 06:20:53;;;;;;;18.20;9.53;;;6.00;99.90;5.80;102476.00;;;;4893145;28;94600;-68
2023/02/12 06:23:20;;;;;;;22.20;9.87;;;6.70;99.90;5.80;102480.00;;;;4887337;28;88971;-68
2023/02/12 06:25:47;;;;;;;14.80;8.60;;;6.50;99.90;5.80;102484.00;;;;4911472;28;88596;-68
2023/02/12 06:28:12;;;;;;;14.87;9.67;;;6.70;99.90;5.80;102479.00;;;;4914357;28;88026;-69
2023/02/12 06:30:38;;;;;;;15.60;9.87;;;5.90;99.90;5.80;102482.00;;;;4913406;28;107422;-68
2023/02/12 06:33:03;;;;;;;15.70;9.60;;;6.00;99.90;5.80;102488.00;;;;4910147;28;118200;-68
2023/02/12 06:35:29;;;;;;;15.57;9.43;;;5.90;99.90;5.80;102498.00;;;;4911567;28;117077;-68
2023/02/12 06:37:56;;;;;;;15.73;9.80;;;5.90;99.90;5.80;102502.00;;;;4909892;28;108992;-68
2023/02/12 06:40:22;;;;;;;12.77;8.30;;;6.70;99.90;5.80;102503.00;;;;4911926;28;87970;-68
2023/02/12 06:42:47;;;;;;;14.23;8.47;;;6.10;99.90;5.90;102510.00;;;;4910691;28;117925;-68
2023/02/12 06:45:13;;;;;;;16.27;9.20;;;6.20;99.90;5.90;102516.00;;;;4908525;28;117614;-68
2023/02/12 06:47:39;;;;;;;16.47;9.73;;;6.10;99.90;5.90;102530.00;;;;4907939;28;98610;-67
2023/02/12 06:50:05;;;;;;;14.63;8.83;;;6.10;99.90;5.90;102525.00;;;;4910121;28;93740;-68
2023/02/12 06:52:31;;;;;;;15.77;10.63;;;6.10;99.90;5.90;102532.00;;;;4905435;28;108833;-68
2023/02/12 06:54:57;;;;;;;17.40;10.67;;;6.10;99.90;6.00;102529.00;;;;4904910;28;116463;-68
2023/02/12 06:57:22;;;;;;;15.67;10.07;;;6.10;99.90;6.00;102527.00;;;;4907919;28;113029;-68
2023/02/12 06:59:48;;;;;;;15.23;9.43;;;6.20;99.90;6.00;102533.00;;;;4935717;28;107669;-67
2023/02/12 07:02:14;;;;;;;18.63;9.53;;;6.20;99.90;6.00;102538.00;;;;4908122;28;109900;-67
2023/02/12 07:04:40;;;;;;;24.27;11.40;;;6.40;99.90;6.00;102529.00;;;;4906863;28;117694;-68
2023/02/12 07:07:06;;;;;;;18.93;10.40;;;6.80;99.90;6.00;102536.00;;;;4907543;28;109568;-68
2023/02/12 07:09:31;;;;;;;18.97;9.90;;;6.90;99.90;6.00;102551.00;;;;4909676;28;109652;-68
2023/02/12 07:11:58;;;;;;;17.13;10.10;;;6.20;99.90;6.00;102540.00;;;;4907766;28;110549;-67
2023/02/12 07:14:27;;;;;;;16.23;9.73;;;6.10;99.90;6.00;102540.00;;;;4907192;28;88616;-68
2023/02/12 07:16:53;;;;;;;18.63;11.97;;;6.40;99.90;6.10;102556.00;;;;4910336;28;89562;-68
2023/02/12 07:19:20;;;;;;;16.23;11.13;;;6.90;99.90;6.10;102548.00;;;;4908483;28;87433;-68
2023/02/12 07:21:46;;;;;;;16.90;10.17;;;6.20;99.90;6.10;102555.00;;;;4905846;28;100225;-68
2023/02/12 07:24:13;;;;;;;20.63;11.13;;;6.40;99.90;6.10;102554.00;;;;4909935;28;88026;-68
2023/02/12 07:26:40;;;;;;;15.67;11.20;;;6.20;99.90;6.10;102551.00;;;;4909693;28;89570;-68
2023/02/12 07:29:06;;;;;;;19.40;9.50;;;6.30;99.90;6.10;102553.00;;;;4907449;28;88186;-68
2023/02/12 07:31:32;;;;;;;17.07;11.37;;;6.40;99.90;6.20;102565.00;;;;4911094;28;95687;-68
2023/02/12 07:33:59;;;;;;;17.23;10.53;;;6.30;99.90;6.20;102556.00;;;;4909287;28;87807;-67
2023/02/12 07:36:28;;;;;;;16.33;10.47;;;6.40;99.90;6.20;102558.00;;;;4908772;28;87962;-67
2023/02/12 07:38:55;;;;;;;17.17;10.60;;;6.40;99.90;6.30;102562.00;;;;4908984;28;100509;-68
2023/02/12 07:41:24;;;;;;;20.00;11.17;;;6.90;99.90;6.30;102568.00;;;;4910081;28;87949;-68
2023/02/12 07:44:03;;;;;;;16.03;10.23;;;7.10;99.90;6.30;102566.00;;;;4909953;28;88633;-67
2023/02/12 07:46:51;;;;;;;14.80;9.30;;;6.50;99.90;6.30;102574.00;;;;4910459;28;87943;-67
2023/02/12 07:49:20;;;;;;;15.13;10.43;;;7.10;99.90;6.40;102572.00;;;;4902081;28;88244;-67
2023/02/12 07:51:48;;;;;;;17.23;10.23;;;6.60;99.90;6.40;102576.00;;;;4883633;28;89721;-66
2023/02/12 07:54:14;;;;;;;18.80;11.43;;;7.30;99.90;6.50;102575.00;;;;4889369;28;89567;-67
2023/02/12 07:56:42;;;;;;;19.73;11.30;;;7.30;99.90;6.50;102592.00;;;;4890448;28;88083;-68
2023/02/12 07:59:13;;;;;;;20.10;11.37;;;7.10;99.90;6.50;102591.00;;;;4888025;28;87936;-68
2023/02/12 08:01:42;;;;;;;23.90;12.70;;;6.50;99.90;6.60;102597.00;;;;4893680;28;88535;-68
2023/02/12 08:04:14;;;;;;;20.47;11.40;;;6.70;99.90;6.60;102598.00;;;;4891555;28;89841;-67
2023/02/12 08:06:44;;;;;;;17.73;11.00;;;6.80;99.90;6.60;102603.00;;;;4891846;28;87859;-67
2023/02/12 08:09:15;;;;;;;15.07;9.50;;;6.80;99.90;6.70;102603.00;;;;4893431;28;87496;-68
2023/02/12 08:11:42;;;;;;;16.77;9.80;;;7.30;99.90;6.70;102611.00;;;;4892361;28;89983;-67
2023/02/12 08:14:10;;;;;;;14.27;9.60;;;6.80;99.90;6.70;102608.00;;;;4891887;28;87902;-68
2023/02/12 08:16:39;;;;;;;18.97;10.50;;;7.60;99.90;6.80;102608.00;;;;4895289;28;101317;-68
2023/02/12 08:19:06;;;;;;;16.20;9.73;;;7.60;99.90;6.80;102616.00;;;;4889245;28;87994;-67
2023/02/12 08:21:32;;;;;;;13.40;8.30;;;7.10;99.90;6.90;102615.00;;;;4893331;28;88314;-67
2023/02/12 08:23:58;;;;;;;14.63;9.03;;;7.50;99.90;6.90;102609.00;;;;4893427;28;88698;-67
2023/02/12 08:26:28;;;;;;;16.33;10.50;;;7.20;99.90;6.90;102617.00;;;;4883311;28;109854;-68
2023/02/12 08:29:07;;;;;;;15.93;8.30;;;7.60;99.90;7.00;102624.00;;;;4889935;28;90476;-68
2023/02/12 08:31:37;;;;;;;19.73;10.40;;;7.10;99.90;7.10;102624.00;;;;4900355;28;88814;-67
2023/02/12 08:34:04;;;;;;;13.83;8.37;;;7.20;99.90;7.10;102625.00;;;;4896664;28;89672;-68
2023/02/12 08:36:39;;;;;;;12.43;7.90;;;7.50;99.90;7.20;102628.00;;;;4893667;28;113391;-68
2023/02/12 08:39:06;;;;;;;18.47;8.53;;;7.30;99.90;7.30;102626.00;;;;4893205;28;109536;-67
2023/02/12 08:41:34;;;;;;;12.93;7.93;;;7.40;99.90;7.30;102638.00;;;;4893833;28;113458;-68
2023/02/12 08:44:02;;;;;;;12.97;8.13;;;7.80;99.90;7.40;102621.00;;;;4895716;28;89656;-68
2023/02/12 08:46:34;;;;;;;17.93;10.07;;;7.50;99.90;7.50;102626.00;;;;4891448;28;88067;-68
2023/02/12 08:49:08;;;;;;;14.10;8.77;;;7.60;99.90;7.50;102619.00;;;;4890795;28;87870;-67
2023/02/12 08:51:36;;;;;;;10.93;7.83;;;7.60;99.90;7.60;102626.00;;;;4920136;28;87967;-68
2023/02/12 08:54:06;;;;;;;12.77;7.93;;;8.00;99.90;7.60;102631.00;;;;4923441;28;88142;-67
2023/02/12 08:56:34;;;;;;;16.37;8.87;;;7.70;99.90;7.70;102640.00;;;;4892413;28;88215;-67
2023/02/12 08:59:03;;;;;;;14.27;8.73;;;7.80;99.90;7.70;102640.00;;;;4891716;28;87402;-68
2023/02/12 09:01:32;;;;;;;16.27;9.13;;;7.90;99.90;7.80;102638.00;;;;4890148;28;90252;-67
2023/02/12 09:03:58;;;;;;;14.50;9.57;;;7.90;99.90;7.80;102647.00;;;;4891124;28;89039;-67
2023/02/12 09:06:26;;;;;;;12.97;8.57;;;8.00;99.90;7.80;102646.00;;;;4891884;28;109729;-67
2023/02/12 09:08:53;;;;;;;11.27;8.80;;;7.90;99.90;7.80;102654.00;;;;4892441;28;87849;-67
2023/02/12 09:11:29;;;;;;;15.17;8.73;;;7.90;99.90;7.80;102647.00;;;;4917849;28;111038;-68
2023/02/12 09:14:01;;;;;;;16.97;9.50;;;8.00;99.90;7.80;102654.00;;;;4903639;28;87910;-67
2023/02/12 09:16:28;;;;;;;14.73;7.43;;;8.00;99.90;7.80;102650.00;;;;4891446;28;88055;-70
2023/02/12 09:18:54;;;;;;;12.43;7.80;;;8.00;99.90;7.90;102653.00;;;;4891870;28;100233;-67
2023/02/12 09:21:20;;;;;;;14.33;8.53;;;8.00;99.90;8.00;102660.00;;;;4889238;28;116386;-70
2023/02/12 09:23:47;;;;;;;11.67;7.43;;;8.20;99.90;8.10;102660.00;;;;4890588;28;88646;-69
2023/02/12 09:26:16;;;;;;;10.40;6.97;;;8.20;99.90;8.10;102659.00;;;;4891557;28;87930;-69
2023/02/12 09:28:42;;;;;;;15.10;7.87;;;8.30;99.90;8.10;102662.00;;;;4893031;28;95743;-69
2023/02/12 09:31:16;;;;;;;16.77;8.37;;;8.40;99.90;8.10;102668.00;;;;4891506;28;89787;-69
2023/02/12 09:33:42;;;;;;;13.23;7.87;;;8.30;99.90;8.10;102670.00;;;;4895493;28;88096;-69
2023/02/12 09:36:12;;;;;;;20.23;8.10;;;8.30;99.90;8.10;102677.00;;;;4908747;28;99543;-69
2023/02/12 09:38:38;;;;;;;11.33;8.90;;;8.30;99.90;8.20;102691.00;;;;4896716;28;88481;-69
2023/02/12 09:41:42;;;;;;;11.97;7.83;;;8.30;99.90;8.10;102679.00;;;;4882161;28;118714;-70
2023/02/12 09:44:21;;;;;;;12.23;8.30;;;8.30;99.90;8.20;102678.00;;;;4873614;28;88287;-69
2023/02/12 09:47:26;;;;;;;9.90;6.57;;;8.40;99.90;8.20;102693.00;;;;4892310;28;87955;-72
2023/02/12 09:50:29;;;;;;;13.63;7.27;;;8.40;99.90;8.20;102687.00;;;;4904559;28;87009;-71
2023/02/12 09:52:56;;;;;;;13.50;7.20;;;8.40;99.90;8.20;102695.00;;;;4883993;28;89616;-71
2023/02/12 09:55:29;;;;;;;10.87;6.23;;;8.40;99.90;8.20;102687.00;;;;4905662;28;88933;-71
2023/02/12 09:57:54;;;;;;;15.00;7.80;;;8.30;99.90;8.20;102690.00;;;;4903924;28;88956;-71
2023/02/12 10:00:30;;;;;;;14.77;7.27;;;8.30;99.90;8.10;102695.00;;;;4888780;28;108830;-70
2023/02/12 10:03:01;;;;;;;11.17;7.30;;;8.30;99.90;8.10;102699.00;;;;4902128;28;88339;-70
2023/02/12 10:05:34;;;;;;;13.77;7.77;;;8.30;99.90;8.20;102694.00;;;;4889035;28;87913;-70
2023/02/12 10:08:31;;;;;;;11.40;7.20;;;8.30;99.90;8.10;102704.00;;;;4893889;28;87924;-70
2023/02/12 10:11:21;;;;;;;10.67;8.00;;;8.30;99.90;8.10;102700.00;;;;4892243;28;87895;-69
2023/02/12 10:14:14;;;;;;;9.20;6.33;;;8.30;99.90;8.20;102699.00;;;;4905032;28;89199;-69
2023/02/12 10:17:10;;;;;;;12.20;7.53;;;8.40;99.90;8.20;102694.00;;;;4891378;28;86915;-69
2023/02/12 10:20:22;;;;;;;11.67;8.17;;;8.40;99.90;8.30;102700.00;;;;4904849;28;101174;-69
2023/02/12 10:23:15;;;;;;;12.70;7.23;;;8.40;99.90;8.40;102697.00;;;;4892172;28;88141;-69
2023/02/12 10:25:49;;;;;;;14.70;7.53;;;8.50;99.90;8.40;102698.00;;;;4882998;28;113119;-70
2023/02/12 10:28:31;;;;;;;14.37;7.90;;;8.60;99.90;8.50;102695.00;;;;4890481;28;100761;-69
2023/02/12 10:31:22;;;;;;;16.50;7.53;;;8.60;99.90;8.50;102695.00;;;;4903417;28;104722;-69
2023/02/12 10:33:49;;;;;;;11.97;7.50;;;8.60;99.90;8.50;102692.00;;;;4893424;28;88038;-70
2023/02/12 10:36:37;;;;;;;12.70;8.27;;;8.60;99.90;8.50;102685.00;;;;4889833;28;89440;-69
2023/02/12 10:39:09;;;;;;;15.30;7.67;;;8.70;99.90;8.50;102693.00;;;;4890914;28;100819;-70
2023/02/12 10:41:47;;;;;;;12.40;6.77;;;8.70;99.90;8.60;102694.00;;;;4891189;28;109984;-69
2023/02/12 10:44:13;;;;;;;11.87;7.10;;;8.70;99.90;8.60;102691.00;;;;4903984;28;87380;-69
2023/02/12 10:46:39;;;;;;;8.50;6.07;;;8.70;99.90;8.60;102693.00;;;;4888240;28;117995;-69
2023/02/12 10:49:07;;;;;;;12.53;7.23;;;8.70;99.90;8.70;102679.00;;;;4890335;28;87804;-70
2023/02/12 10:52:00;;;;;;;13.30;6.67;;;8.70;99.90;8.70;102692.00;;;;4884897;28;109403;-69
2023/02/12 10:54:42;;;;;;;16.73;6.43;;;8.80;99.90;8.80;102686.00;;;;4905628;28;88329;-69
2023/02/12 10:57:18;;;;;;;10.43;5.93;;;8.90;99.90;8.80;102680.00;;;;4888575;28;88046;-69
2023/02/12 10:59:46;;;;;;;8.87;5.80;;;9.00;99.90;8.90;102675.00;;;;4886730;28;101108;-67
2023/02/12 11:02:28;;;;;;;10.77;6.27;;;9.00;99.90;9.00;102670.00;;;;4903476;28;88177;-68
2023/02/12 11:04:55;;;;;;;8.03;5.47;;;9.10;99.90;9.10;102673.00;;;;4889956;28;88432;-69
2023/02/12 11:07:22;;;;;;;9.30;6.13;;;9.10;99.90;9.20;102682.00;;;;4891585;28;89083;-69
2023/02/12 11:09:50;;;;;;;8.77;5.77;;;9.20;99.90;9.20;102670.00;;;;4891081;28;119891;-68
2023/02/12 11:12:29;;;;;;;8.83;5.30;;;9.30;99.90;9.30;102674.00;;;;4903684;28;87929;-67